createdAt,value
2019-04-21T00:01:20.191Z,40.20
2019-04-21T00:03:56.658Z,40.30
2019-04-21T00:06:43.962Z,40.40
2019-04-21T00:09:21.050Z,40.80
2019-04-21T00:11:49.119Z,40.80
2019-04-21T00:14:11.355Z,40.90
2019-04-21T00:16:40.977Z,41.10
2019-04-21T00:19:16.385Z,40.90
2019-04-21T00:21:47.839Z,40.90
2019-04-21T00:24:28.794Z,40.90
2019-04-21T00:27:05.720Z,41.00
2019-04-21T00:29:46.907Z,41.00
2019-04-21T00:32:06.898Z,40.80
2019-04-21T00:34:23.733Z,40.70
2019-04-21T00:37:08.015Z,40.60
2019-04-21T00:39:56.616Z,40.70
2019-04-21T00:42:18.177Z,40.60
2019-04-21T00:44:47.308Z,40.70
2019-04-21T00:47:26.663Z,40.60
2019-04-21T00:49:59.120Z,40.70
2019-04-21T00:55:27.645Z,41.00
2019-04-21T00:57:52.115Z,40.90
2019-04-21T01:00:17.719Z,41.00
2019-04-21T01:05:21.183Z,41.00
2019-04-21T01:07:50.339Z,41.10
2019-04-21T01:10:20.584Z,41.10
2019-04-21T01:13:04.301Z,41.10
2019-04-21T01:15:41.322Z,41.20
2019-04-21T01:18:06.387Z,41.20
2019-04-21T01:20:17.771Z,41.20
2019-04-21T01:22:48.062Z,41.40
2019-04-21T01:25:27.477Z,41.60
2019-04-21T01:28:03.845Z,41.60
2019-04-21T01:30:42.920Z,41.80
2019-04-21T01:33:14.595Z,41.80
2019-04-21T01:35:47.961Z,41.80
2019-04-21T01:38:22.645Z,42.00
2019-04-21T01:40:52.738Z,42.00
2019-04-21T01:43:24.700Z,42.10
2019-04-21T01:45:53.545Z,42.10
2019-04-21T01:48:27.381Z,42.20
2019-04-21T01:50:55.784Z,42.10
2019-04-21T01:53:45.302Z,42.70
2019-04-21T01:56:30.557Z,42.20
2019-04-21T01:58:53.908Z,42.40
2019-04-21T02:01:36.013Z,42.50
2019-04-21T02:04:06.857Z,42.40
2019-04-21T02:06:39.300Z,42.40
2019-04-21T02:09:09.818Z,42.50
2019-04-21T02:11:52.080Z,42.50
2019-04-21T02:14:15.782Z,42.60
2019-04-21T02:16:50.963Z,42.70
2019-04-21T02:19:16.571Z,42.60
2019-04-21T02:21:49.187Z,42.90
2019-04-21T02:24:35.262Z,42.80
2019-04-21T02:26:59.235Z,42.90
2019-04-21T02:29:33.104Z,43.00
2019-04-21T02:32:10.566Z,43.20
2019-04-21T02:35:04.082Z,43.20
2019-04-21T02:39:49.555Z,43.30
2019-04-21T02:42:19.885Z,43.40
2019-04-21T02:44:51.787Z,43.50
2019-04-21T02:47:38.938Z,43.40
2019-04-21T02:52:37.383Z,43.50
2019-04-21T03:00:13.839Z,43.60
2019-04-21T03:03:26.150Z,43.70
2019-04-21T03:05:58.767Z,44.50
2019-04-21T03:11:12.221Z,44.00
2019-04-21T03:13:44.466Z,44.10
2019-04-21T03:16:20.207Z,44.30
2019-04-21T03:18:57.123Z,44.40
2019-04-21T03:24:08.920Z,44.70
2019-04-21T03:26:42.932Z,44.80
2019-04-21T03:31:49.739Z,45.20
2019-04-21T03:34:29.370Z,45.40
2019-04-21T03:36:47.548Z,45.30
2019-04-21T03:38:53.206Z,45.50
2019-04-21T03:41:52.535Z,45.50
2019-04-21T03:49:11.825Z,45.80
2019-04-21T03:51:40.081Z,45.80
2019-04-21T03:54:08.703Z,45.80
2019-04-21T03:56:59.308Z,45.90
2019-04-21T03:59:12.367Z,46.00
2019-04-21T04:02:06.783Z,46.00
2019-04-21T04:12:44.409Z,46.30
2019-04-21T04:15:24.310Z,46.50
2019-04-21T04:17:40.781Z,46.40
2019-04-21T04:20:24.146Z,46.50
2019-04-21T04:25:19.335Z,46.70
2019-04-21T04:32:58.559Z,46.70
2019-04-21T04:35:34.022Z,46.70
2019-04-21T04:38:07.045Z,46.70
2019-04-21T04:40:38.710Z,46.70
2019-04-21T04:43:19.294Z,46.70
2019-04-21T04:45:48.530Z,46.70
2019-04-21T04:48:19.367Z,46.90
2019-04-21T04:50:53.541Z,46.80
2019-04-21T04:55:58.910Z,47.00
2019-04-21T04:58:29.266Z,47.60
2019-04-21T05:01:08.685Z,46.90
2019-04-21T05:03:43.787Z,46.90
2019-04-21T05:16:46.344Z,46.60
2019-04-21T05:23:55.602Z,46.80
2019-04-21T05:26:23.048Z,47.00
2019-04-21T05:28:55.223Z,47.20
2019-04-21T05:34:26.981Z,47.70
2019-04-21T05:37:04.094Z,47.80
2019-04-21T05:39:41.988Z,47.90
2019-04-21T05:42:06.411Z,48.10
2019-04-21T05:44:59.909Z,48.50
2019-04-21T05:47:33.327Z,48.60
2019-04-21T05:50:00.918Z,48.80
2019-04-21T05:52:35.289Z,48.90
2019-04-21T05:55:12.348Z,48.90
2019-04-21T05:57:39.497Z,49.00
2019-04-21T06:00:15.546Z,49.10
2019-04-21T06:02:50.990Z,49.10
2019-04-21T06:05:29.719Z,49.20
2019-04-21T06:07:52.450Z,49.20
2019-04-21T06:10:27.136Z,49.20
2019-04-21T06:12:59.928Z,49.50
2019-04-21T06:15:34.890Z,49.40
2019-04-21T06:18:06.363Z,50.00
2019-04-21T06:20:33.444Z,49.30
2019-04-21T06:23:02.969Z,49.20
2019-04-21T06:25:48.927Z,49.10
2019-04-21T06:28:12.087Z,49.30
2019-04-21T06:30:54.676Z,49.20
2019-04-21T06:33:15.362Z,49.40
2019-04-21T06:36:26.472Z,49.40
2019-04-21T06:38:59.638Z,49.40
2019-04-21T06:41:27.775Z,49.60
2019-04-21T06:48:59.626Z,50.10
2019-04-21T06:51:32.370Z,50.40
2019-04-21T06:56:42.447Z,50.40
2019-04-21T06:59:06.455Z,50.50
2019-04-21T07:01:47.068Z,50.10
2019-04-21T07:04:20.851Z,50.10
2019-04-21T07:06:48.175Z,49.90
2019-04-21T07:11:43.376Z,50.00
2019-04-21T07:14:31.945Z,50.00
2019-04-21T07:16:57.802Z,50.00
2019-04-21T07:19:31.935Z,50.00
2019-04-21T07:21:55.635Z,49.30
2019-04-21T07:24:31.944Z,48.30
2019-04-21T07:27:02.390Z,47.80
2019-04-21T07:29:34.599Z,47.60
2019-04-21T07:32:29.467Z,47.30
2019-04-21T07:34:41.348Z,47.40
2019-04-21T07:37:07.747Z,47.40
2019-04-21T07:39:40.521Z,47.10
2019-04-21T07:42:09.499Z,47.00
2019-04-21T07:44:35.061Z,46.90
2019-04-21T07:47:17.079Z,46.60
2019-04-21T07:50:07.450Z,46.50
2019-04-21T07:53:01.013Z,46.40
2019-04-21T07:57:55.754Z,46.50
2019-04-21T08:00:40.778Z,46.30
2019-04-21T08:03:09.168Z,47.10
2019-04-21T08:05:35.291Z,47.40
2019-04-21T08:08:01.456Z,47.20
2019-04-21T08:10:40.783Z,47.60
2019-04-21T08:13:25.275Z,47.80
2019-04-21T08:15:44.140Z,47.70
2019-04-21T08:18:20.366Z,47.50
2019-04-21T08:20:47.948Z,48.10
2019-04-21T08:23:20.047Z,48.80
2019-04-21T08:25:58.974Z,49.10
2019-04-21T08:28:25.957Z,48.90
2019-04-21T08:30:54.299Z,48.30
2019-04-21T08:33:38.354Z,47.90
2019-04-21T08:38:34.456Z,47.60
2019-04-21T08:41:18.192Z,47.50
2019-04-21T08:43:43.086Z,47.20
2019-04-21T08:46:13.570Z,47.00
2019-04-21T08:48:47.845Z,46.60
2019-04-21T08:53:50.070Z,45.90
2019-04-21T08:56:27.685Z,45.80
2019-04-21T08:59:11.297Z,45.20
2019-04-21T09:02:06.259Z,45.10
2019-04-21T09:04:33.563Z,44.90
2019-04-21T09:07:22.244Z,44.30
2019-04-21T09:09:44.517Z,44.10
2019-04-21T09:12:15.688Z,44.20
2019-04-21T09:14:50.676Z,43.80
2019-04-21T09:17:12.111Z,43.70
2019-04-21T09:19:59.659Z,43.80
2019-04-21T09:22:17.898Z,44.20
2019-04-21T09:24:53.606Z,43.90
2019-04-21T09:27:23.114Z,43.10
2019-04-21T09:29:49.223Z,43.10
2019-04-21T09:32:16.613Z,43.00
2019-04-21T09:34:45.290Z,42.60
2019-04-21T09:37:28.688Z,42.40
2019-04-21T09:39:51.705Z,42.30
2019-04-21T09:42:21.521Z,42.30
2019-04-21T09:44:58.002Z,41.90
2019-04-21T09:47:33.589Z,41.80
2019-04-21T09:49:56.500Z,42.00
2019-04-21T09:52:36.126Z,41.90
2019-04-21T09:55:07.056Z,41.40
2019-04-21T09:57:38.219Z,41.60
2019-04-21T10:00:11.321Z,41.80
2019-04-21T10:02:42.715Z,41.40
2019-04-21T10:05:07.832Z,40.70
2019-04-21T10:07:43.812Z,40.80
2019-04-21T10:10:15.566Z,40.40
2019-04-21T10:12:47.630Z,39.80
2019-04-21T10:15:22.871Z,40.20
2019-04-21T10:18:02.851Z,39.70
2019-04-21T10:20:33.579Z,40.10
2019-04-21T10:23:05.033Z,40.00
2019-04-21T10:25:36.805Z,39.00
2019-04-21T10:28:07.388Z,39.40
2019-04-21T10:30:40.617Z,39.00
2019-04-21T10:33:12.439Z,38.90
2019-04-21T10:35:43.382Z,38.70
2019-04-21T10:38:22.781Z,38.50
2019-04-21T10:40:51.792Z,37.10
2019-04-21T10:43:23.699Z,36.80
2019-04-21T10:45:54.866Z,37.20
2019-04-21T10:48:25.215Z,36.90
2019-04-21T10:50:56.921Z,36.90
2019-04-21T10:53:31.104Z,38.10
2019-04-21T10:56:13.422Z,36.80
2019-04-21T10:58:38.179Z,36.20
2019-04-21T11:01:29.678Z,35.60
2019-04-21T11:04:29.889Z,36.20
2019-04-21T11:07:06.729Z,36.40
2019-04-21T11:09:30.021Z,36.00
2019-04-21T11:12:02.029Z,35.40
2019-04-21T11:14:33.449Z,35.00
2019-04-21T11:17:04.069Z,35.90
2019-04-21T11:19:34.990Z,35.10
2019-04-21T11:22:07.209Z,34.70
2019-04-21T11:24:39.011Z,33.40
2019-04-21T11:27:10.817Z,33.80
2019-04-21T11:29:43.292Z,34.00
2019-04-21T11:32:14.681Z,34.50
2019-04-21T11:34:45.383Z,34.50
2019-04-21T11:37:24.096Z,33.90
2019-04-21T11:39:59.371Z,33.80
2019-04-21T11:42:34.094Z,33.30
2019-04-21T11:45:06.481Z,33.00
2019-04-21T11:47:54.530Z,33.10
2019-04-21T11:50:25.245Z,33.40
2019-04-21T11:52:56.826Z,33.20
2019-04-21T11:55:34.287Z,33.10
2019-04-21T11:58:00.335Z,33.20
2019-04-21T12:00:31.636Z,32.40
2019-04-21T12:03:03.691Z,31.70
2019-04-21T12:05:35.151Z,33.00
2019-04-21T12:08:18.943Z,32.80
2019-04-21T12:10:37.868Z,31.90
2019-04-21T12:13:08.209Z,32.00
2019-04-21T12:15:39.040Z,30.70
2019-04-21T12:18:10.015Z,30.30
2019-04-21T12:20:40.857Z,31.70
2019-04-21T12:23:12.202Z,31.50
2019-04-21T12:25:45.361Z,32.00
2019-04-21T12:28:15.992Z,32.00
2019-04-21T12:30:49.653Z,29.70
2019-04-21T12:33:40.387Z,29.90
2019-04-21T12:36:11.583Z,31.20
2019-04-21T12:38:48.858Z,31.10
2019-04-21T12:41:15.300Z,30.90
2019-04-21T12:43:46.579Z,31.40
2019-04-21T12:46:18.112Z,32.60
2019-04-21T12:48:49.872Z,31.70
2019-04-21T12:51:21.815Z,31.50
2019-04-21T12:53:52.229Z,31.50
2019-04-21T12:56:23.410Z,31.40
2019-04-21T12:58:55.263Z,31.20
2019-04-21T13:01:27.277Z,31.20
2019-04-21T13:03:57.902Z,30.50
2019-04-21T13:06:29.605Z,31.10
2019-04-21T13:09:05.262Z,30.90
2019-04-21T13:11:33.150Z,30.30
2019-04-21T13:14:04.078Z,29.50
2019-04-21T13:16:37.162Z,29.60
2019-04-21T13:19:09.242Z,29.50
2019-04-21T13:21:40.277Z,29.20
2019-04-21T13:24:11.617Z,30.00
2019-04-21T13:26:47.214Z,30.10
2019-04-21T13:29:14.560Z,29.80
2019-04-21T13:31:44.923Z,29.70
2019-04-21T13:34:15.867Z,29.30
2019-04-21T13:36:47.727Z,29.40
2019-04-21T13:40:05.899Z,29.40
2019-04-21T13:42:19.861Z,29.20
2019-04-21T13:44:42.521Z,28.50
2019-04-21T13:47:14.437Z,28.40
2019-04-21T13:49:45.471Z,28.50
2019-04-21T13:52:15.763Z,28.20
2019-04-21T13:54:47.388Z,28.50
2019-04-21T13:57:18.773Z,28.00
2019-04-21T13:59:49.593Z,29.00
2019-04-21T14:02:22.509Z,28.30
2019-04-21T14:04:53.675Z,28.60
2019-04-21T14:07:24.096Z,29.10
2019-04-21T14:09:59.427Z,29.10
2019-04-21T14:12:27.462Z,29.60
2019-04-21T14:14:57.866Z,29.80
2019-04-21T14:17:28.816Z,29.40
2019-04-21T14:19:59.427Z,29.00
2019-04-21T14:22:29.817Z,29.20
2019-04-21T14:25:01.687Z,29.00
2019-04-21T14:27:32.238Z,28.40
2019-04-21T14:30:02.927Z,28.00
2019-04-21T14:32:33.811Z,28.00
2019-04-21T14:35:04.908Z,27.50
2019-04-21T14:37:35.261Z,27.80
2019-04-21T14:40:10.306Z,27.90
2019-04-21T14:42:38.340Z,27.80
2019-04-21T14:45:10.635Z,28.50
2019-04-21T14:47:54.257Z,28.00
2019-04-21T14:50:42.353Z,27.50
2019-04-21T14:53:17.863Z,27.10
2019-04-21T14:55:49.140Z,26.70
2019-04-21T14:58:19.489Z,27.60
2019-04-21T15:00:59.970Z,27.20
2019-04-21T15:03:30.307Z,27.00
2019-04-21T15:06:01.098Z,27.30
2019-04-21T15:08:31.533Z,27.40
2019-04-21T15:11:03.113Z,27.80
2019-04-21T15:13:33.526Z,27.60
2019-04-21T15:16:04.682Z,26.90
2019-04-21T15:18:35.125Z,26.70
2019-04-21T15:21:05.677Z,26.40
2019-04-21T15:23:36.214Z,27.10
2019-04-21T15:26:06.146Z,26.50
2019-04-21T15:28:37.866Z,26.60
2019-04-21T15:31:08.461Z,26.60
2019-04-21T15:33:41.227Z,26.60
2019-04-21T15:36:11.581Z,26.90
2019-04-21T15:38:41.892Z,27.20
2019-04-21T15:41:12.664Z,27.10
2019-04-21T15:43:43.009Z,27.00
2019-04-21T15:46:13.379Z,26.60
2019-04-21T15:48:44.781Z,26.80
2019-04-21T15:51:15.818Z,27.10
2019-04-21T15:53:47.813Z,27.40
2019-04-21T15:56:22.749Z,26.80
2019-04-21T15:59:10.742Z,26.80
2019-04-21T16:02:10.535Z,27.30
2019-04-21T16:04:41.426Z,27.20
2019-04-21T16:07:12.040Z,27.20
2019-04-21T16:09:43.737Z,27.30
2019-04-21T16:12:15.795Z,27.70
2019-04-21T16:14:46.941Z,27.40
2019-04-21T16:17:17.480Z,27.00
2019-04-21T16:19:48.070Z,26.80
2019-04-21T16:22:18.849Z,27.00
2019-04-21T16:24:50.559Z,26.70
2019-04-21T16:27:21.467Z,26.60
2019-04-21T16:29:52.133Z,26.10
2019-04-21T16:32:23.946Z,26.50
2019-04-21T16:35:01.504Z,26.90
2019-04-21T16:37:27.695Z,26.90
2019-04-21T16:39:59.105Z,27.50
2019-04-21T16:42:30.078Z,27.70
2019-04-21T16:45:00.982Z,27.60
2019-04-21T16:47:32.448Z,27.60
2019-04-21T16:50:03.556Z,27.30
2019-04-21T16:52:38.432Z,27.70
2019-04-21T16:55:19.056Z,27.80
2019-04-21T16:58:00.682Z,28.00
2019-04-21T17:00:36.463Z,27.60
2019-04-21T17:02:58.859Z,27.40
2019-04-21T17:05:30.152Z,27.30
2019-04-21T17:08:01.798Z,27.50
2019-04-21T17:10:32.808Z,27.80
2019-04-21T17:13:03.818Z,27.80
2019-04-21T17:15:51.927Z,28.10
2019-04-21T17:18:23.106Z,28.00
2019-04-21T17:20:46.714Z,28.00
2019-04-21T17:23:11.504Z,28.10
2019-04-21T17:25:43.286Z,28.50
2019-04-21T17:28:13.683Z,28.70
2019-04-21T17:30:44.348Z,28.70
2019-04-21T17:33:18.693Z,28.70
2019-04-21T17:35:46.894Z,28.80
2019-04-21T17:38:18.421Z,29.10
2019-04-21T17:40:49.508Z,29.30
2019-04-21T17:43:21.409Z,29.30
2019-04-21T17:45:53.116Z,29.50
2019-04-21T17:48:25.043Z,29.50
2019-04-21T17:51:13.616Z,29.40
2019-04-21T17:53:53.078Z,29.50
2019-04-21T17:56:47.794Z,29.60
2019-04-21T17:59:16.386Z,29.50
2019-04-21T18:01:49.979Z,29.70
2019-04-21T18:04:15.490Z,29.60
2019-04-21T18:07:08.088Z,29.90
2019-04-21T18:09:59.073Z,30.00
2019-04-21T18:12:16.597Z,30.00
2019-04-21T18:14:33.030Z,30.10
2019-04-21T18:17:04.532Z,30.20
2019-04-21T18:19:39.375Z,30.20
2019-04-21T18:22:32.146Z,30.50
2019-04-21T18:25:05.862Z,31.00
2019-04-21T18:27:29.976Z,30.80
2019-04-21T18:30:04.380Z,30.90
2019-04-21T18:32:38.854Z,30.90
2019-04-21T18:35:17.754Z,31.00
2019-04-21T18:38:18.485Z,31.10
2019-04-21T18:40:49.078Z,31.20
2019-04-21T18:46:25.984Z,32.10
2019-04-21T18:49:17.510Z,31.40
2019-04-21T18:52:20.742Z,31.60
2019-04-21T18:55:00.421Z,31.90
2019-04-21T18:57:24.957Z,32.10
2019-04-21T18:59:49.078Z,32.30
2019-04-21T19:02:22.171Z,32.50
2019-04-21T19:04:55.842Z,32.70
2019-04-21T19:07:37.666Z,33.50
2019-04-21T19:10:25.184Z,33.00
2019-04-21T19:13:09.239Z,33.00
2019-04-21T19:15:18.351Z,33.00
2019-04-21T19:22:51.016Z,33.50
2019-04-21T19:25:23.888Z,33.70
2019-04-21T19:27:54.737Z,33.80
2019-04-21T19:30:36.393Z,34.00
2019-04-21T19:32:58.391Z,34.00
2019-04-21T19:35:17.335Z,34.40
2019-04-21T19:37:54.189Z,34.50
2019-04-21T19:40:37.579Z,34.30
2019-04-21T19:43:02.866Z,35.10
2019-04-21T19:45:37.080Z,35.20
2019-04-21T19:48:14.993Z,35.40
2019-04-21T19:50:46.685Z,35.50
2019-04-21T19:53:07.490Z,35.80
2019-04-21T19:55:32.482Z,35.90
2019-04-21T19:58:03.194Z,36.10
2019-04-21T20:00:34.729Z,36.20
2019-04-21T20:03:06.256Z,36.20
2019-04-21T20:05:46.698Z,36.40
2019-04-21T20:08:23.830Z,36.50
2019-04-21T20:11:01.256Z,36.50
2019-04-21T20:13:46.202Z,36.60
2019-04-21T20:16:01.501Z,36.50
2019-04-21T20:18:25.148Z,36.50
2019-04-21T20:20:50.116Z,36.60
2019-04-21T20:23:27.824Z,36.70
2019-04-21T20:25:56.022Z,36.80
2019-04-21T20:28:36.888Z,36.90
2019-04-21T20:31:14.606Z,36.80
2019-04-21T20:36:25.178Z,37.00
2019-04-21T20:38:42.200Z,36.90
2019-04-21T20:41:22.475Z,37.10
2019-04-21T20:43:58.470Z,37.20
2019-04-21T20:46:26.849Z,37.30
2019-04-21T20:48:51.297Z,37.30
2019-04-21T20:51:31.054Z,37.40
2019-04-21T20:53:59.946Z,37.50
2019-04-21T20:56:37.264Z,37.60
2019-04-21T20:59:10.988Z,37.70
2019-04-21T21:01:57.945Z,37.70
2019-04-21T21:04:06.333Z,37.70
2019-04-21T21:06:42.430Z,37.80
2019-04-21T21:09:12.770Z,38.10
2019-04-21T21:12:06.116Z,38.70
2019-04-21T21:14:19.498Z,38.10
2019-04-21T21:16:50.788Z,38.30
2019-04-21T21:19:28.925Z,38.80
2019-04-21T21:21:49.979Z,38.30
2019-04-21T21:24:33.172Z,38.50
2019-04-21T21:26:57.794Z,38.50
2019-04-21T21:29:26.419Z,38.60
2019-04-21T21:32:11.177Z,38.70
2019-04-21T21:34:41.356Z,38.70
2019-04-21T21:37:14.128Z,38.80
2019-04-21T21:39:51.050Z,38.80
2019-04-21T21:41:59.798Z,38.70
2019-04-21T21:44:28.298Z,39.00
2019-04-21T21:47:13.253Z,39.00
2019-04-21T21:49:43.677Z,39.00
2019-04-21T21:52:09.297Z,39.10
2019-04-21T21:54:33.907Z,39.10
2019-04-21T21:57:04.946Z,39.10
2019-04-21T21:59:38.162Z,39.20
2019-04-21T22:02:09.451Z,39.30
2019-04-21T22:04:51.065Z,39.20
2019-04-21T22:07:15.631Z,39.30
2019-04-21T22:09:44.289Z,39.50
2019-04-21T22:12:15.991Z,39.40
2019-04-21T22:14:50.357Z,39.40
2019-04-21T22:17:36.738Z,39.40
2019-04-21T22:20:12.192Z,39.50
2019-04-21T22:22:36.802Z,39.50
2019-04-21T22:25:05.953Z,39.40
2019-04-21T22:27:27.384Z,39.50
2019-04-21T22:30:02.888Z,39.40
2019-04-21T22:32:31.475Z,39.50
2019-04-21T22:35:05.564Z,39.50
2019-04-21T22:37:45.193Z,39.50
2019-04-21T22:40:21.871Z,39.40
2019-04-21T22:42:51.213Z,39.40
2019-04-21T22:45:13.673Z,39.40
2019-04-21T22:47:46.613Z,39.30
2019-04-21T22:50:28.906Z,39.40
2019-04-21T22:53:04.007Z,39.50
2019-04-21T22:55:34.681Z,39.50
2019-04-21T22:58:03.909Z,39.30
2019-04-21T23:00:41.333Z,39.20
2019-04-21T23:03:10.726Z,39.10
2019-04-21T23:05:42.743Z,39.10
2019-04-21T23:08:13.010Z,39.10
2019-04-21T23:10:49.639Z,39.00
2019-04-21T23:13:19.524Z,39.00
2019-04-21T23:15:51.774Z,39.00
2019-04-21T23:18:36.425Z,39.00
2019-04-21T23:21:06.198Z,38.90
2019-04-21T23:23:46.870Z,39.00
2019-04-21T23:26:14.575Z,38.90
2019-04-21T23:28:45.610Z,38.80
2019-04-21T23:31:21.459Z,38.90
2019-04-21T23:33:32.720Z,39.00
2019-04-21T23:36:12.959Z,39.10
2019-04-21T23:38:43.571Z,39.10
2019-04-21T23:41:11.101Z,39.10
2019-04-21T23:43:40.534Z,39.20
2019-04-21T23:46:18.890Z,39.60
2019-04-21T23:49:02.458Z,39.40
2019-04-21T23:51:27.503Z,39.50
2019-04-21T23:53:47.231Z,39.50
2019-04-21T23:56:21.658Z,39.50
2019-04-21T23:58:56.406Z,39.40
